航空気象通報

ウインドサーファーのための航空気象通報による風予報です。

11/26-11/27の航空気象通報(国内、海外)

2010年11月26日 22時40分47秒 | TAF
羽田空港
TAF RJTT 260839Z 2609/2712 05008KT 9999 FEW030 BKN050
BECMG 2610/2612 35014KT
BECMG 2703/2706 09006KT
日本時間26日18-19時:050度から8ノットの風
19-21時:風が変化
21時-27日12時:350度から14ノットの風
12-15時:風が変化
15-21時:090度から6ノットの風


富士山静岡空港
TAF RJNS 260842Z 2609/2712 27010KT 9999 FEW010 SCT030
BECMG 2613/2615 34006KT
BECMG 2700/2703 24010KT
日本時間26日18-22時:270度から10ノットの風
22-24時:風が変化
27日00-09時:340度から6ノットの風
09-15時:風が変化
15-21時:240度から10ノットの風


那覇空港
TAF ROAH 260841Z 2609/2712 02015KT 9999 FEW030
日本時間26日00時-27日21時:020度から15ノットの風


マウイのカフルイ空港
TAF PHOG 261138Z 2612/2712 05009G15KT P6SM FEW030 SCT050
FM261800 06016G23KT P6SM FEW045
FM270500 06010KT P6SM FEW050
ハワイ時間26日02-08時:050度から9ノット、突風15ノット
08-19時:060度から16ノット、突風23ノット
19時-27日02時:060度から10ノットの風


サイパン空港
TAF PGSN 261120Z 2612/2712 09008KT P6SM VCSH SCT020 SCT120
FM262200 08012KT P6SM VCSH SCT018 SCT120
マリアナ時間26日22時-27日08時:090度から8ノットの風
08-22時:080度から12ノットの風
ジャンル:
お天気
コメント   この記事についてブログを書く
« 記事のタイトルを入力してく... | トップ | 11/27-11/28の航空気象通報(... »
最近の画像もっと見る

コメントを投稿

ブログ作成者から承認されるまでコメントは反映されません。

TAF」カテゴリの最新記事